Time;durP1;ratioP1;P1;durP2;ratioP2;P2;SDS_P1;SDS_P2;PMS_P1;PMS_P2;Temp;Humidity;BMP_temperature;BMP_pressure;BME280_temperature;BME280_humidity;BME280_pressure;Samples;Min_cycle;Max_cycle;Signal;HPM_P1;HPM_P2
2022/12/14 00:02:13;;;;;;;;;;;0.40;79.10;;;;;;5094901;28;20359;-33
2022/12/14 00:04:38;;;;;;;;;;;0.40;79.10;;;;;;5094710;28;19919;-34
2022/12/14 00:07:04;;;;;;;;;;;0.40;79.00;;;;;;5094978;28;19959;-33
2022/12/14 00:09:29;;;;;;;;;;;0.40;78.90;;;;;;5094934;28;19942;-32
2022/12/14 00:11:54;;;;;;;;;;;0.50;78.90;;;;;;5095008;28;19959;-33
2022/12/14 00:14:20;;;;;;;;;;;0.50;78.90;;;;;;5094717;28;19915;-33
2022/12/14 00:16:45;;;;;;;;;;;0.40;78.80;;;;;;5094917;28;20376;-36
2022/12/14 00:19:11;;;;;;;;;;;0.40;78.80;;;;;;5094636;28;19908;-34
2022/12/14 00:21:37;;;;;;;;;;;0.40;78.90;;;;;;5095242;28;20379;-37
2022/12/14 00:24:02;;;;;;;;;;;0.40;78.80;;;;;;5094536;28;19959;-34
2022/12/14 00:26:30;;;;;;;;;;;0.40;78.70;;;;;;5094914;28;19908;-36
2022/12/14 00:28:55;;;;;;;;;;;0.40;78.70;;;;;;5094861;28;19914;-35
2022/12/14 00:31:22;;;;;;;;;;;0.40;78.70;;;;;;5094402;28;20127;-32
2022/12/14 00:33:49;;;;;;;;;;;0.40;78.70;;;;;;5094406;28;20293;-36
2022/12/14 00:36:14;;;;;;;;;;;0.40;78.70;;;;;;5094317;28;19919;-35
2022/12/14 00:38:40;;;;;;;;;;;0.40;78.70;;;;;;5094543;28;19909;-34
2022/12/14 00:41:06;;;;;;;;;;;0.40;78.70;;;;;;5094302;28;20363;-35
2022/12/14 00:43:32;;;;;;;;;;;0.40;78.70;;;;;;5094398;28;19950;-34
2022/12/14 00:45:57;;;;;;;;;;;0.40;78.70;;;;;;5094090;28;20366;-35
2022/12/14 00:48:23;;;;;;;;;;;0.40;78.70;;;;;;5094122;28;19961;-34
2022/12/14 00:50:50;;;;;;;;;;;0.40;78.70;;;;;;5094109;28;19908;-34
2022/12/14 00:53:15;;;;;;;;;;;0.30;78.70;;;;;;5092658;28;19912;-34
2022/12/14 00:55:42;;;;;;;;;;;0.30;78.70;;;;;;5093943;28;19954;-37
2022/12/14 00:58:08;;;;;;;;;;;0.30;78.60;;;;;;5092867;28;20417;-35
2022/12/14 01:00:34;;;;;;;;;;;0.40;78.70;;;;;;5093738;28;19958;-34
2022/12/14 01:02:59;;;;;;;;;;;0.40;78.70;;;;;;5093809;28;20256;-35
2022/12/14 01:05:25;;;;;;;;;;;0.30;78.60;;;;;;5092162;28;20282;-35
2022/12/14 01:07:50;;;;;;;;;;;0.30;78.60;;;;;;5093933;28;19908;-35
2022/12/14 01:10:16;;;;;;;;;;;0.30;78.60;;;;;;5093763;28;19915;-35
2022/12/14 01:12:41;;;;;;;;;;;0.30;78.60;;;;;;5093685;28;19908;-33
2022/12/14 01:15:07;;;;;;;;;;;0.30;78.60;;;;;;5093673;28;20339;-34
2022/12/14 01:17:33;;;;;;;;;;;0.20;78.50;;;;;;5093517;28;19908;-33
2022/12/14 01:19:58;;;;;;;;;;;0.20;78.50;;;;;;5093632;28;19999;-34
2022/12/14 01:22:24;;;;;;;;;;;0.20;78.50;;;;;;5093709;28;19916;-33
2022/12/14 01:24:49;;;;;;;;;;;0.20;78.50;;;;;;5093561;28;20378;-33
2022/12/14 01:27:15;;;;;;;;;;;0.20;78.60;;;;;;5093456;28;19947;-34
2022/12/14 01:29:40;;;;;;;;;;;0.20;79.20;;;;;;5093335;28;20325;-34
2022/12/14 01:32:06;;;;;;;;;;;0.20;78.60;;;;;;5093181;28;19920;-36
2022/12/14 01:34:31;;;;;;;;;;;0.10;78.50;;;;;;5091896;28;19951;-39
2022/12/14 01:36:56;;;;;;;;;;;0.10;78.50;;;;;;5093114;28;19908;-35
2022/12/14 01:39:22;;;;;;;;;;;0.10;78.50;;;;;;5093004;28;19969;-34
2022/12/14 01:41:51;;;;;;;;;;;0.10;78.50;;;;;;5093099;28;19991;-35
2022/12/14 01:44:17;;;;;;;;;;;0.10;78.50;;;;;;5092964;28;19912;-34
2022/12/14 01:46:51;;;;;;;;;;;0.10;78.50;;;;;;5093257;28;19950;-33
2022/12/14 01:49:16;;;;;;;;;;;0.10;78.50;;;;;;5093258;28;20414;-34
2022/12/14 01:51:44;;;;;;;;;;;0.00;78.40;;;;;;5093234;28;20049;-34
2022/12/14 01:54:11;;;;;;;;;;;0.10;78.50;;;;;;5093211;28;19932;-33
2022/12/14 01:56:38;;;;;;;;;;;0.00;78.40;;;;;;5093229;28;19912;-34
2022/12/14 01:59:07;;;;;;;;;;;0.10;78.40;;;;;;5092809;28;19908;-32
2022/12/14 02:01:33;;;;;;;;;;;0.00;78.30;;;;;;5091437;28;20279;-33
2022/12/14 02:03:59;;;;;;;;;;;0.00;78.30;;;;;;5091829;28;20325;-33
2022/12/14 02:06:27;;;;;;;;;;;0.00;78.30;;;;;;5092148;28;19916;-33
2022/12/14 02:08:53;;;;;;;;;;;0.00;78.30;;;;;;5092026;28;19916;-33
2022/12/14 02:11:31;;;;;;;;;;;0.10;78.20;;;;;;5092268;28;19919;-34
2022/12/14 02:13:57;;;;;;;;;;;0.00;78.10;;;;;;5092153;28;19912;-35
2022/12/14 02:16:22;;;;;;;;;;;0.00;78.00;;;;;;5092164;28;19918;-33
2022/12/14 02:18:48;;;;;;;;;;;0.00;78.10;;;;;;5092055;28;19913;-35
2022/12/14 02:21:27;;;;;;;;;;;0.00;78.10;;;;;;5091996;28;20430;-34
2022/12/14 02:24:19;;;;;;;;;;;0.00;78.10;;;;;;5091900;28;19918;-33
2022/12/14 02:26:51;;;;;;;;;;;0.00;78.10;;;;;;5091893;28;19916;-33
2022/12/14 02:29:20;;;;;;;;;;;0.00;78.10;;;;;;5092077;28;19919;-36
2022/12/14 02:32:03;;;;;;;;;;;0.00;78.00;;;;;;5091824;28;19912;-33
2022/12/14 02:34:49;;;;;;;;;;;0.00;78.00;;;;;;5091795;28;20014;-34
2022/12/14 02:37:15;;;;;;;;;;;0.00;78.00;;;;;;5091801;28;19920;-34
2022/12/14 02:39:59;;;;;;;;;;;0.00;78.00;;;;;;5091737;28;20445;-34
2022/12/14 02:42:39;;;;;;;;;;;0.00;77.90;;;;;;5091764;28;19959;-34
2022/12/14 02:45:08;;;;;;;;;;;0.00;77.90;;;;;;5092131;28;19920;-34
2022/12/14 02:47:46;;;;;;;;;;;-0.10;77.80;;;;;;5091798;28;19934;-34
2022/12/14 02:50:12;;;;;;;;;;;-0.10;78.00;;;;;;5091947;28;20384;-33
2022/12/14 02:52:53;;;;;;;;;;;-0.10;77.90;;;;;;5092017;28;19913;-35
2022/12/14 02:55:34;;;;;;;;;;;-0.20;77.90;;;;;;5091764;28;19918;-36
2022/12/14 02:58:02;;;;;;;;;;;-0.20;77.90;;;;;;5092239;28;20402;-35
2022/12/14 03:00:31;;;;;;;;;;;-0.20;77.90;;;;;;5091292;28;19916;-35
2022/12/14 03:02:56;;;;;;;;;;;-0.20;77.80;;;;;;5091646;28;20240;-35
2022/12/14 03:05:22;;;;;;;;;;;-0.20;77.80;;;;;;5091532;28;19916;-34
2022/12/14 03:07:53;;;;;;;;;;;-0.20;77.80;;;;;;5091572;28;19955;-35
2022/12/14 03:10:18;;;;;;;;;;;-0.20;77.80;;;;;;5091881;28;19912;-38
2022/12/14 03:12:46;;;;;;;;;;;-0.30;77.70;;;;;;5091822;28;19916;-34
2022/12/14 03:15:14;;;;;;;;;;;-0.30;77.70;;;;;;5091732;28;19955;-35
2022/12/14 03:17:43;;;;;;;;;;;-0.30;77.60;;;;;;5091573;28;20330;-34
2022/12/14 03:20:11;;;;;;;;;;;-0.30;78.30;;;;;;5091528;28;19947;-34
2022/12/14 03:22:36;;;;;;;;;;;-0.30;77.70;;;;;;5095278;28;19962;-34
2022/12/14 03:25:07;;;;;;;;;;;-0.30;77.60;;;;;;5095404;28;19916;-34
2022/12/14 03:27:35;;;;;;;;;;;-0.30;77.60;;;;;;5095432;28;19958;-34
2022/12/14 03:30:06;;;;;;;;;;;-0.40;77.60;;;;;;5095719;28;19912;-34
2022/12/14 03:32:34;;;;;;;;;;;-0.40;77.60;;;;;;5095960;28;19912;-34
2022/12/14 03:35:06;;;;;;;;;;;-0.40;77.60;;;;;;5095825;28;20003;-36
2022/12/14 03:37:37;;;;;;;;;;;-0.40;77.60;;;;;;5095431;28;19916;-34
2022/12/14 03:40:03;;;;;;;;;;;-0.40;77.60;;;;;;5095412;28;20338;-34
2022/12/14 03:42:32;;;;;;;;;;;-0.40;77.60;;;;;;5095636;28;19919;-34
2022/12/14 03:45:15;;;;;;;;;;;-0.40;77.60;;;;;;5093912;28;20387;-34
2022/12/14 03:47:44;;;;;;;;;;;-0.40;77.60;;;;;;5094999;28;20030;-34
2022/12/14 03:50:15;;;;;;;;;;;-0.30;77.60;;;;;;5095502;28;19916;-34
2022/12/14 03:52:43;;;;;;;;;;;-0.40;77.40;;;;;;5095220;28;19912;-34
2022/12/14 03:55:15;;;;;;;;;;;-0.40;77.40;;;;;;5095065;28;20268;-36
2022/12/14 03:58:00;;;;;;;;;;;-0.30;77.50;;;;;;5094661;28;19912;-34
2022/12/14 04:00:29;;;;;;;;;;;-0.30;77.40;;;;;;5086910;28;19934;-34
2022/12/14 04:03:06;;;;;;;;;;;-0.30;77.30;;;;;;5094588;28;19916;-34
2022/12/14 04:05:41;;;;;;;;;;;-0.30;77.20;;;;;;5095168;28;19916;-34
2022/12/14 04:08:29;;;;;;;;;;;-0.40;77.20;;;;;;5094883;28;19955;-33
2022/12/14 04:19:35;;;;;;;;;;;-0.40;77.20;;;;;;5092516;28;19997;-34
2022/12/14 04:22:03;;;;;;;;;;;-0.50;77.10;;;;;;5094759;28;19959;-36
2022/12/14 04:27:19;;;;;;;;;;;-0.50;77.10;;;;;;5094507;28;19926;-34
2022/12/14 04:29:55;;;;;;;;;;;-0.50;77.10;;;;;;5094531;28;19915;-32
2022/12/14 04:32:33;;;;;;;;;;;-0.50;77.10;;;;;;5094711;28;20287;-34
2022/12/14 04:35:05;;;;;;;;;;;-0.50;77.10;;;;;;5093009;28;19918;-34
2022/12/14 04:37:31;;;;;;;;;;;-0.50;77.10;;;;;;5094385;28;19919;-33
2022/12/14 04:40:17;;;;;;;;;;;-0.50;77.00;;;;;;5094451;28;19923;-34
2022/12/14 04:42:45;;;;;;;;;;;-0.50;77.00;;;;;;5093825;28;19912;-34
2022/12/14 04:45:24;;;;;;;;;;;-0.50;76.90;;;;;;5094217;28;19923;-33
2022/12/14 04:47:54;;;;;;;;;;;-0.50;76.90;;;;;;5094491;28;20424;-34
2022/12/14 04:50:41;;;;;;;;;;;-0.50;76.90;;;;;;5094198;28;19916;-34
2022/12/14 04:53:12;;;;;;;;;;;-0.50;76.90;;;;;;5094503;28;19919;-34
2022/12/14 04:55:37;;;;;;;;;;;-0.50;76.80;;;;;;5094073;28;19919;-34
2022/12/14 04:58:03;;;;;;;;;;;-0.50;76.80;;;;;;5094061;28;19913;-33
2022/12/14 05:00:31;;;;;;;;;;;-0.50;76.60;;;;;;5093997;28;19955;-36
2022/12/14 05:03:02;;;;;;;;;;;-0.50;76.60;;;;;;5093745;28;20002;-34
2022/12/14 05:05:43;;;;;;;;;;;-0.50;76.60;;;;;;5093767;28;19959;-35
2022/12/14 05:08:11;;;;;;;;;;;-0.50;76.60;;;;;;5093888;28;19913;-33
2022/12/14 05:10:42;;;;;;;;;;;-0.50;76.50;;;;;;5093684;28;19974;-35
2022/12/14 05:13:17;;;;;;;;;;;-0.50;76.50;;;;;;5094078;28;19918;-34
2022/12/14 05:15:51;;;;;;;;;;;-0.50;76.40;;;;;;5093656;28;19999;-34
2022/12/14 05:18:16;;;;;;;;;;;-0.40;76.40;;;;;;5093581;28;19919;-35
2022/12/14 05:20:42;;;;;;;;;;;-0.40;76.30;;;;;;5093590;28;19912;-35
2022/12/14 05:23:07;;;;;;;;;;;-0.40;76.20;;;;;;5093632;28;20026;-35
2022/12/14 05:25:33;;;;;;;;;;;-0.50;76.10;;;;;;5093358;28;19920;-37
2022/12/14 05:27:58;;;;;;;;;;;-0.40;76.20;;;;;;5093543;28;19912;-34
2022/12/14 05:30:24;;;;;;;;;;;-0.50;76.10;;;;;;5093401;28;20283;-34
2022/12/14 05:32:50;;;;;;;;;;;-0.40;76.10;;;;;;5093291;28;19976;-38
2022/12/14 05:35:15;;;;;;;;;;;-0.50;76.10;;;;;;5093194;28;19912;-31
2022/12/14 05:37:41;;;;;;;;;;;-0.40;76.10;;;;;;5093424;28;20260;-34
2022/12/14 05:40:07;;;;;;;;;;;-0.50;76.00;;;;;;5092242;28;19912;-33
2022/12/14 05:42:33;;;;;;;;;;;-0.50;76.00;;;;;;5093151;28;19924;-33
2022/12/14 05:44:58;;;;;;;;;;;-0.50;76.10;;;;;;5092554;28;19997;-34
2022/12/14 05:47:24;;;;;;;;;;;-0.50;76.10;;;;;;5093159;28;19927;-35
2022/12/14 05:49:50;;;;;;;;;;;-0.50;76.10;;;;;;5093759;28;20352;-35
2022/12/14 05:52:16;;;;;;;;;;;-0.50;76.10;;;;;;5093014;28;19912;-34
2022/12/14 05:54:41;;;;;;;;;;;-0.50;76.00;;;;;;5092998;28;19967;-35
2022/12/14 05:57:06;;;;;;;;;;;-0.60;76.00;;;;;;5091701;28;19912;-35
2022/12/14 05:59:32;;;;;;;;;;;-0.60;76.00;;;;;;5092896;28;20399;-34
2022/12/14 06:01:58;;;;;;;;;;;-0.60;76.00;;;;;;5092833;28;20007;-35
2022/12/14 06:04:24;;;;;;;;;;;-0.60;76.00;;;;;;5092221;28;20011;-34
2022/12/14 06:06:50;;;;;;;;;;;-0.60;76.00;;;;;;5093060;28;19919;-34
2022/12/14 06:09:16;;;;;;;;;;;-0.70;75.90;;;;;;5092782;28;20062;-35
2022/12/14 06:11:42;;;;;;;;;;;-0.70;75.90;;;;;;5091610;28;20012;-36
2022/12/14 06:14:09;;;;;;;;;;;-0.70;76.00;;;;;;5093037;28;19913;-36
2022/12/14 06:16:35;;;;;;;;;;;-0.70;76.10;;;;;;5092661;28;19916;-36
2022/12/14 06:19:02;;;;;;;;;;;-0.80;76.00;;;;;;5092648;28;20486;-34
2022/12/14 06:21:29;;;;;;;;;;;-0.80;76.00;;;;;;5092501;28;19912;-35
2022/12/14 06:23:55;;;;;;;;;;;-0.80;76.00;;;;;;5092571;28;20341;-34
2022/12/14 06:26:21;;;;;;;;;;;-0.90;76.00;;;;;;5092777;28;20394;-35
2022/12/14 06:28:47;;;;;;;;;;;-0.90;76.00;;;;;;5092579;28;19912;-34
2022/12/14 06:31:14;;;;;;;;;;;-0.90;76.00;;;;;;5092800;28;20412;-34
2022/12/14 06:33:40;;;;;;;;;;;-0.90;75.90;;;;;;5092689;28;19965;-35
2022/12/14 06:36:05;;;;;;;;;;;-1.00;75.90;;;;;;5092470;28;19913;-33
2022/12/14 06:38:31;;;;;;;;;;;-1.00;75.90;;;;;;5092188;28;19912;-35
2022/12/14 06:40:56;;;;;;;;;;;-1.00;75.90;;;;;;5092173;28;19981;-33
2022/12/14 06:43:25;;;;;;;;;;;-1.10;75.90;;;;;;5092411;28;19916;-35
2022/12/14 06:45:50;;;;;;;;;;;-1.10;76.00;;;;;;5092125;28;19916;-35
2022/12/14 06:48:16;;;;;;;;;;;-1.10;76.00;;;;;;5092357;28;19919;-36
2022/12/14 06:50:41;;;;;;;;;;;-1.10;76.00;;;;;;5092276;28;19957;-35
2022/12/14 06:53:10;;;;;;;;;;;-1.10;76.00;;;;;;5092309;28;19912;-34
2022/12/14 06:55:35;;;;;;;;;;;-1.10;76.00;;;;;;5092610;28;20001;-34
2022/12/14 06:58:01;;;;;;;;;;;-1.10;76.00;;;;;;5096232;28;20342;-36
2022/12/14 07:00:26;;;;;;;;;;;-1.10;76.00;;;;;;5096274;28;19912;-33
2022/12/14 07:02:52;;;;;;;;;;;-1.10;76.00;;;;;;5095036;28;19916;-34
2022/12/14 07:05:17;;;;;;;;;;;-1.10;76.00;;;;;;5095789;28;20334;-33
2022/12/14 07:07:43;;;;;;;;;;;-1.10;75.90;;;;;;5096101;28;20003;-34
2022/12/14 07:10:09;;;;;;;;;;;-1.10;75.90;;;;;;5096086;28;19938;-33
2022/12/14 07:12:35;;;;;;;;;;;-1.10;75.90;;;;;;5096008;28;19962;-33
2022/12/14 07:15:01;;;;;;;;;;;-1.20;75.80;;;;;;5096212;28;19912;-34
2022/12/14 07:17:26;;;;;;;;;;;-1.20;75.80;;;;;;5095887;28;19919;-39
2022/12/14 07:19:52;;;;;;;;;;;-1.20;76.40;;;;;;5096380;28;19912;-33
2022/12/14 07:22:17;;;;;;;;;;;-1.20;75.80;;;;;;5096175;28;19919;-33
2022/12/14 07:24:43;;;;;;;;;;;-1.20;75.80;;;;;;5096047;28;20430;-35
2022/12/14 07:27:09;;;;;;;;;;;-1.20;75.70;;;;;;5095890;28;19912;-35
2022/12/14 07:29:34;;;;;;;;;;;-1.20;75.60;;;;;;5095919;28;20013;-35
2022/12/14 07:32:00;;;;;;;;;;;-1.30;75.50;;;;;;5095849;28;19912;-35
2022/12/14 07:34:25;;;;;;;;;;;-1.30;75.60;;;;;;5095976;28;19943;-33
2022/12/14 07:36:52;;;;;;;;;;;-1.40;75.60;;;;;;5095649;28;19913;-37
2022/12/14 07:39:18;;;;;;;;;;;-1.40;75.70;;;;;;5095593;28;19912;-34
2022/12/14 07:41:44;;;;;;;;;;;-1.40;75.80;;;;;;5095732;28;20006;-34
2022/12/14 07:44:10;;;;;;;;;;;-1.40;75.70;;;;;;5095750;28;19912;-34
2022/12/14 07:46:35;;;;;;;;;;;-1.40;75.80;;;;;;5095625;28;20375;-36
2022/12/14 07:49:01;;;;;;;;;;;-1.40;75.80;;;;;;5095284;28;19912;-38
2022/12/14 07:51:31;;;;;;;;;;;-1.50;75.70;;;;;;5095317;28;20428;-38
2022/12/14 07:53:56;;;;;;;;;;;-1.50;75.60;;;;;;5095125;28;19912;-34
2022/12/14 07:56:26;;;;;;;;;;;-1.50;75.60;;;;;;5095529;28;20003;-40
2022/12/14 07:58:53;;;;;;;;;;;-1.50;75.60;;;;;;5095109;28;19912;-37
2022/12/14 08:01:21;;;;;;;;;;;-1.50;75.60;;;;;;5095000;28;20407;-35
2022/12/14 08:04:06;;;;;;;;;;;-1.50;75.50;;;;;;5094821;28;19919;-34
2022/12/14 08:06:32;;;;;;;;;;;-1.50;75.50;;;;;;5094550;28;19924;-35
2022/12/14 08:08:59;;;;;;;;;;;-1.50;75.50;;;;;;5095027;28;20223;-37
2022/12/14 08:11:24;;;;;;;;;;;-1.50;75.50;;;;;;5094963;28;19916;-33
2022/12/14 08:13:53;;;;;;;;;;;-1.50;75.50;;;;;;5094828;28;19958;-36
2022/12/14 08:16:19;;;;;;;;;;;-1.50;75.40;;;;;;5094845;28;19912;-34
2022/12/14 08:18:44;;;;;;;;;;;-1.50;75.50;;;;;;5094862;28;19989;-34
2022/12/14 08:21:10;;;;;;;;;;;-1.50;75.50;;;;;;5094840;28;19947;-34
2022/12/14 08:23:36;;;;;;;;;;;-1.60;75.40;;;;;;5094939;28;20375;-33
2022/12/14 08:26:03;;;;;;;;;;;-1.60;75.40;;;;;;5094877;28;19931;-35
2022/12/14 08:28:29;;;;;;;;;;;-1.60;75.50;;;;;;5094513;28;19919;-35
2022/12/14 08:30:55;;;;;;;;;;;-1.60;75.40;;;;;;5094784;28;19916;-34
2022/12/14 08:33:21;;;;;;;;;;;-1.60;75.40;;;;;;5094450;28;19959;-35
2022/12/14 08:35:47;;;;;;;;;;;-1.60;75.40;;;;;;5094390;28;19920;-34
2022/12/14 08:38:12;;;;;;;;;;;-1.70;75.40;;;;;;5094700;28;19916;-34
2022/12/14 08:40:38;;;;;;;;;;;-1.60;75.50;;;;;;5094277;28;20353;-34
2022/12/14 08:43:04;;;;;;;;;;;-1.60;75.50;;;;;;5094610;28;19916;-35
2022/12/14 08:45:29;;;;;;;;;;;-1.60;75.50;;;;;;5094390;28;19924;-34
2022/12/14 08:47:59;;;;;;;;;;;-1.60;75.50;;;;;;5094506;28;19943;-34
2022/12/14 08:50:25;;;;;;;;;;;-1.50;75.50;;;;;;5094221;28;19924;-34
2022/12/14 08:52:51;;;;;;;;;;;-1.50;75.40;;;;;;5094362;28;19957;-34
2022/12/14 08:55:16;;;;;;;;;;;-1.50;75.30;;;;;;5093859;28;19916;-33
2022/12/14 08:57:42;;;;;;;;;;;-1.50;75.20;;;;;;5093963;28;19916;-33
2022/12/14 09:00:08;;;;;;;;;;;-1.40;75.30;;;;;;5093919;28;20364;-33
2022/12/14 09:02:34;;;;;;;;;;;-1.40;75.20;;;;;;5093915;28;19966;-33
2022/12/14 09:04:59;;;;;;;;;;;-1.30;75.20;;;;;;5093836;28;19916;-34
2022/12/14 09:07:26;;;;;;;;;;;-1.30;75.00;;;;;;5094123;28;19913;-34
2022/12/14 09:09:51;;;;;;;;;;;-1.20;74.90;;;;;;5093871;28;19920;-34
2022/12/14 09:12:17;;;;;;;;;;;-1.20;74.90;;;;;;5092514;28;19912;-34
2022/12/14 09:14:45;;;;;;;;;;;-1.10;74.80;;;;;;5093795;28;19959;-34
2022/12/14 09:17:11;;;;;;;;;;;-1.10;74.80;;;;;;5093702;28;19965;-35
2022/12/14 09:19:37;;;;;;;;;;;-1.00;74.70;;;;;;5092874;28;19912;-34
2022/12/14 09:22:02;;;;;;;;;;;-0.90;74.70;;;;;;5093801;28;20387;-35
2022/12/14 09:24:28;;;;;;;;;;;-0.90;74.50;;;;;;5093799;28;19926;-34
2022/12/14 09:26:54;;;;;;;;;;;-0.80;74.40;;;;;;5093392;28;20425;-34
2022/12/14 09:29:19;;;;;;;;;;;-0.80;74.30;;;;;;5093612;28;19919;-34
2022/12/14 09:31:45;;;;;;;;;;;-0.60;74.30;;;;;;5092101;28;20003;-33
2022/12/14 09:34:10;;;;;;;;;;;-0.60;73.90;;;;;;5093421;28;19999;-34
2022/12/14 09:36:36;;;;;;;;;;;-0.60;73.90;;;;;;5093320;28;20378;-34
2022/12/14 09:39:02;;;;;;;;;;;-0.60;73.90;;;;;;5093489;28;19931;-34
2022/12/14 09:41:34;;;;;;;;;;;-0.50;74.00;;;;;;5093191;28;20002;-33
2022/12/14 09:44:18;;;;;;;;;;;-0.50;73.90;;;;;;5093432;28;19998;-33
2022/12/14 09:46:53;;;;;;;;;;;-0.40;73.90;;;;;;5093320;28;19912;-35
2022/12/14 09:49:29;;;;;;;;;;;-0.30;73.80;;;;;;5093216;28;20283;-34
2022/12/14 09:51:57;;;;;;;;;;;-0.30;73.70;;;;;;5093381;28;20325;-35
2022/12/14 09:54:28;;;;;;;;;;;-0.20;73.70;;;;;;5093299;28;19960;-35
2022/12/14 09:56:56;;;;;;;;;;;-0.20;73.50;;;;;;5092945;28;19947;-34
2022/12/14 09:59:25;;;;;;;;;;;-0.20;73.60;;;;;;5092884;28;19912;-34
2022/12/14 10:01:53;;;;;;;;;;;-0.10;73.50;;;;;;5091513;28;20022;-38
2022/12/14 10:04:33;;;;;;;;;;;-0.10;73.50;;;;;;5092771;28;20335;-35
2022/12/14 10:07:07;;;;;;;;;;;-0.10;73.30;;;;;;5092669;28;19999;-34
2022/12/14 10:10:01;;;;;;;;;;;0.00;73.40;;;;;;5092286;28;20443;-37
2022/12/14 10:12:39;;;;;;;;;;;0.00;73.50;;;;;;5068141;28;19919;-35
2022/12/14 10:15:19;;;;;;;;;;;0.10;73.40;;;;;;5092617;28;19916;-33
2022/12/14 10:17:44;;;;;;;;;;;0.10;73.30;;;;;;5092742;28;20034;-34
2022/12/14 10:20:16;;;;;;;;;;;0.20;73.20;;;;;;5092791;28;19977;-34
2022/12/14 10:22:44;;;;;;;;;;;0.20;73.00;;;;;;5092593;28;20003;-36
2022/12/14 10:25:17;;;;;;;;;;;0.20;73.00;;;;;;5092490;28;19916;-35
2022/12/14 10:27:54;;;;;;;;;;;0.30;73.00;;;;;;5092617;28;19912;-36
2022/12/14 10:30:20;;;;;;;;;;;0.30;72.90;;;;;;5092524;28;20283;-36
2022/12/14 10:32:47;;;;;;;;;;;0.40;72.90;;;;;;5091264;28;19918;-34
2022/12/14 10:35:18;;;;;;;;;;;0.40;72.70;;;;;;5092662;28;20386;-34
2022/12/14 10:37:47;;;;;;;;;;;0.50;72.60;;;;;;5092444;28;19912;-34
2022/12/14 10:40:27;;;;;;;;;;;0.50;72.50;;;;;;5092265;28;19947;-35
2022/12/14 10:43:06;;;;;;;;;;;0.50;72.40;;;;;;5092497;28;19920;-35
2022/12/14 10:45:37;;;;;;;;;;;0.60;72.40;;;;;;5092424;28;20001;-35
2022/12/14 10:48:06;;;;;;;;;;;0.60;72.30;;;;;;5092452;28;20283;-35
2022/12/14 10:50:34;;;;;;;;;;;0.70;72.30;;;;;;5091980;28;19912;-34
2022/12/14 10:53:01;;;;;;;;;;;0.80;72.20;;;;;;5092301;28;19912;-35
2022/12/14 10:55:32;;;;;;;;;;;0.80;72.10;;;;;;5092297;28;19974;-34
2022/12/14 10:57:57;;;;;;;;;;;0.90;72.10;;;;;;5092026;28;19919;-34
2022/12/14 11:00:23;;;;;;;;;;;0.90;72.00;;;;;;5091924;28;20006;-35
2022/12/14 11:02:53;;;;;;;;;;;1.00;72.00;;;;;;5091813;28;20401;-35
2022/12/14 11:05:31;;;;;;;;;;;1.10;72.00;;;;;;5090234;28;19920;-35
2022/12/14 11:07:56;;;;;;;;;;;1.10;71.90;;;;;;5091939;28;19942;-35
2022/12/14 11:10:29;;;;;;;;;;;1.20;71.70;;;;;;5091857;28;20267;-35
2022/12/14 11:13:05;;;;;;;;;;;1.20;71.60;;;;;;5092171;28;19969;-35
2022/12/14 11:15:30;;;;;;;;;;;1.30;71.70;;;;;;5092101;28;19912;-35
2022/12/14 11:18:19;;;;;;;;;;;1.40;71.60;;;;;;5092261;28;19912;-33
2022/12/14 11:20:53;;;;;;;;;;;1.40;71.50;;;;;;5086048;28;19916;-35
2022/12/14 11:23:19;;;;;;;;;;;1.50;71.50;;;;;;5091691;28;20008;-34
2022/12/14 11:25:47;;;;;;;;;;;1.50;71.40;;;;;;5092077;28;20409;-35
2022/12/14 11:28:33;;;;;;;;;;;1.60;71.40;;;;;;5092028;28;20351;-35
2022/12/14 11:31:01;;;;;;;;;;;1.70;71.30;;;;;;5091735;28;20398;-34
2022/12/14 11:33:31;;;;;;;;;;;1.70;71.20;;;;;;5091904;28;19913;-34
2022/12/14 11:35:56;;;;;;;;;;;1.70;71.10;;;;;;5091740;28;19912;-33
2022/12/14 11:38:22;;;;;;;;;;;1.80;71.00;;;;;;5091573;28;20007;-35
2022/12/14 11:40:48;;;;;;;;;;;1.90;70.90;;;;;;5091681;28;19912;-34
2022/12/14 11:43:25;;;;;;;;;;;1.80;70.70;;;;;;5094627;28;20371;-34
2022/12/14 11:45:50;;;;;;;;;;;1.90;70.70;;;;;;5095194;28;19976;-34
2022/12/14 11:48:18;;;;;;;;;;;1.90;70.80;;;;;;5094056;28;19912;-33
2022/12/14 11:50:44;;;;;;;;;;;1.90;70.70;;;;;;5094033;28;19912;-34
2022/12/14 11:53:14;;;;;;;;;;;1.90;70.70;;;;;;5095146;28;19977;-34
2022/12/14 11:55:44;;;;;;;;;;;2.00;70.70;;;;;;5095069;28;19919;-33
2022/12/14 11:58:32;;;;;;;;;;;2.00;70.60;;;;;;5095145;28;19916;-34
2022/12/14 12:00:59;;;;;;;;;;;2.10;70.60;;;;;;5089380;28;19912;-35
2022/12/14 12:03:29;;;;;;;;;;;2.10;70.60;;;;;;5093931;28;19916;-35
2022/12/14 12:05:59;;;;;;;;;;;2.20;70.50;;;;;;5095003;28;20012;-34
2022/12/14 12:08:30;;;;;;;;;;;2.20;70.40;;;;;;5095041;28;20435;-34
2022/12/14 12:10:57;;;;;;;;;;;2.20;70.20;;;;;;5094895;28;19916;-34
2022/12/14 12:13:23;;;;;;;;;;;2.30;70.20;;;;;;5094991;28;19912;-34
2022/12/14 12:15:49;;;;;;;;;;;2.30;70.20;;;;;;5094755;28;19957;-34
2022/12/14 12:18:17;;;;;;;;;;;2.30;70.30;;;;;;5094845;28;20010;-34
2022/12/14 12:20:45;;;;;;;;;;;2.40;70.30;;;;;;5094761;28;19957;-34
2022/12/14 12:23:34;;;;;;;;;;;2.40;70.30;;;;;;5094798;28;19919;-33
2022/12/14 12:26:10;;;;;;;;;;;2.40;70.30;;;;;;5088671;28;19943;-34
2022/12/14 12:28:39;;;;;;;;;;;2.50;70.20;;;;;;5095122;28;19916;-34
2022/12/14 12:31:08;;;;;;;;;;;2.50;70.10;;;;;;5094835;28;20402;-34
2022/12/14 12:33:45;;;;;;;;;;;2.50;70.00;;;;;;5094869;28;20451;-34
2022/12/14 12:36:11;;;;;;;;;;;2.50;69.90;;;;;;5094593;28;19912;-34
2022/12/14 12:39:02;;;;;;;;;;;2.50;69.50;;;;;;5094494;28;20375;-34
2022/12/14 12:41:28;;;;;;;;;;;2.60;69.60;;;;;;5077887;28;19935;-34
2022/12/14 12:43:58;;;;;;;;;;;2.60;69.00;;;;;;5094722;28;19916;-34
2022/12/14 12:46:28;;;;;;;;;;;2.60;68.70;;;;;;5093082;28;19923;-34
2022/12/14 12:48:59;;;;;;;;;;;2.60;68.60;;;;;;5094587;28;20007;-34
2022/12/14 12:51:30;;;;;;;;;;;2.60;68.50;;;;;;5094285;28;19981;-34
2022/12/14 12:53:58;;;;;;;;;;;2.60;68.50;;;;;;5093166;28;19912;-35
2022/12/14 12:56:32;;;;;;;;;;;2.60;67.60;;;;;;5094198;28;19978;-34
2022/12/14 12:58:59;;;;;;;;;;;2.60;67.60;;;;;;5094134;28;19912;-34
2022/12/14 13:01:24;;;;;;;;;;;2.60;67.10;;;;;;5094004;28;20007;-34
2022/12/14 13:03:51;;;;;;;;;;;2.60;67.30;;;;;;5094009;28;20347;-34
2022/12/14 13:06:26;;;;;;;;;;;2.60;66.80;;;;;;5093658;28;20008;-34
2022/12/14 13:08:56;;;;;;;;;;;2.60;66.80;;;;;;5094253;28;19935;-33
2022/12/14 13:11:24;;;;;;;;;;;2.70;66.80;;;;;;5094139;28;19971;-34
2022/12/14 13:13:51;;;;;;;;;;;2.70;66.80;;;;;;5093803;28;19919;-34
2022/12/14 13:16:17;;;;;;;;;;;2.70;66.70;;;;;;5093714;28;19918;-34
2022/12/14 13:18:44;;;;;;;;;;;2.80;66.60;;;;;;5094059;28;20347;-36
2022/12/14 13:21:30;;;;;;;;;;;2.80;66.50;;;;;;5093471;28;19912;-34
2022/12/14 13:23:56;;;;;;;;;;;2.70;66.10;;;;;;5093922;28;20397;-36
2022/12/14 13:26:42;;;;;;;;;;;2.80;66.10;;;;;;5092188;28;19916;-37
2022/12/14 13:29:08;;;;;;;;;;;2.70;66.10;;;;;;5093443;28;20207;-41
2022/12/14 13:31:34;;;;;;;;;;;2.70;66.40;;;;;;5093590;28;19973;-35
2022/12/14 13:34:02;;;;;;;;;;;2.80;66.40;;;;;;5093443;28;19912;-35
2022/12/14 13:37:06;;;;;;;;;;;2.80;66.30;;;;;;5093374;28;19912;-35
2022/12/14 13:39:35;;;;;;;;;;;2.80;65.60;;;;;;5050627;28;20391;-35
2022/12/14 13:42:01;;;;;;;;;;;2.80;65.90;;;;;;5050620;28;19912;-34
2022/12/14 13:44:35;;;;;;;;;;;2.80;65.80;;;;;;5071101;28;19919;-33
2022/12/14 13:47:02;;;;;;;;;;;2.80;65.10;;;;;;5093344;28;20031;-34
2022/12/14 13:49:28;;;;;;;;;;;2.80;65.00;;;;;;5093519;28;20394;-36
2022/12/14 13:51:54;;;;;;;;;;;2.80;65.20;;;;;;5093489;28;19998;-35
2022/12/14 13:54:28;;;;;;;;;;;2.70;65.10;;;;;;5093363;28;20283;-34
2022/12/14 13:57:20;;;;;;;;;;;2.70;65.30;;;;;;5093043;28;19965;-35
2022/12/14 13:59:49;;;;;;;;;;;2.60;65.30;;;;;;5088467;28;20290;-35
2022/12/14 14:02:29;;;;;;;;;;;2.70;64.70;;;;;;5092853;28;19923;-34
2022/12/14 14:05:18;;;;;;;;;;;2.60;64.90;;;;;;5092438;28;20383;-35
2022/12/14 14:07:50;;;;;;;;;;;2.60;64.70;;;;;;5086082;28;19912;-34
2022/12/14 14:10:27;;;;;;;;;;;2.60;64.70;;;;;;5093030;28;20011;-34
2022/12/14 14:12:53;;;;;;;;;;;2.60;64.90;;;;;;5092703;28;19912;-34
2022/12/14 14:15:33;;;;;;;;;;;2.70;65.00;;;;;;5092593;28;20348;-34
2022/12/14 14:18:10;;;;;;;;;;;2.70;64.90;;;;;;5092766;28;19919;-33
2022/12/14 14:20:36;;;;;;;;;;;2.80;64.70;;;;;;5092946;28;20389;-34
2022/12/14 14:23:13;;;;;;;;;;;2.70;64.80;;;;;;5092606;28;19995;-34
2022/12/14 14:25:41;;;;;;;;;;;2.80;64.90;;;;;;5092608;28;19916;-35
2022/12/14 14:28:11;;;;;;;;;;;2.80;64.90;;;;;;5092884;28;20382;-32
2022/12/14 14:30:47;;;;;;;;;;;2.70;64.70;;;;;;5092667;28;19916;-34
2022/12/14 14:33:32;;;;;;;;;;;2.70;64.40;;;;;;5092461;28;19912;-34
2022/12/14 14:36:07;;;;;;;;;;;2.60;64.50;;;;;;5092725;28;19915;-34
2022/12/14 14:38:36;;;;;;;;;;;2.50;64.90;;;;;;5092351;28;19919;-35
2022/12/14 14:41:10;;;;;;;;;;;2.40;65.10;;;;;;5092358;28;19912;-35
2022/12/14 14:43:37;;;;;;;;;;;2.40;65.30;;;;;;5092576;28;19931;-35
2022/12/14 14:46:04;;;;;;;;;;;2.30;65.30;;;;;;5092299;28;19920;-34
2022/12/14 14:48:33;;;;;;;;;;;2.20;65.30;;;;;;5092348;28;19946;-35